• Join FlightAware (Why Join?)
  • Login
  • US Flag 
06:05PM EDT


 

Airport Tracker/Info


-or-


 

Live Flight TrackerFlight Track Log ✈ SKW7390 ✈ 02-May-2013 ✈ KSLC - KRKS

Flight Track Log - Related Links

Times and Time Zones

All times are in EDT time to prevent confusion due to time zone crossing. See the SKW7390 flight status page for this flight to view local times or setup timezone preferences in your user account.

Time Position Orientation Groundspeed Altitude Reporting Facility
EDT Latitude Longitude Course Direction KTS MPH feet Rate Location/Type
10:44PM 40.8133 -112.0025 72° East 143 165 5,200  Level Salt Lake Center
10:45PM 40.8461 -112.0056 356° North 154 177 6,500 1,380 Climbing Salt Lake Center
10:46PM 40.8692 -112.0069 357° North 166 191 7,200 1,740 Climbing Salt Lake Center
10:46PM 40.8889 -111.9711 54° Northeast 197 227 8,500 1,980 Climbing Salt Lake Center
10:47PM 40.8933 -111.9303 82° East 203 234 9,300 1,500 Climbing Salt Lake Center
10:48PM 40.8936 -111.7693 66° East  Level FlightAware Approximate
10:48PM 40.9039 -111.8544 80° East 212 244 10,800  Level Salt Lake Center
10:49PM 40.9211 -111.6780 75° East  Level FlightAware Approximate
10:49PM 40.9244 -111.7772 71° East 226 260 12,000  Level Salt Lake Center
10:50PM 40.9417 -111.5833 72° East  Level FlightAware Approximate
10:50PM 40.9508 -111.6992 66° East 240 276 13,000  Level Salt Lake Center
10:51PM 40.9789 -111.6161 66° East 252 290 13,800 780 Climbing Salt Lake Center
10:52PM 41.0042 -111.5047 73° East 267 307 14,700 780 Climbing Salt Lake Center
10:53PM 41.0283 -111.4114 71° East 269 310 15,500 720 Climbing Salt Lake Center
10:54PM 41.0528 -111.3169 71° East 271 312 16,200 660 Climbing Salt Lake Center
10:55PM 41.0772 -111.2192 72° East 278 320 16,900 600 Climbing Salt Lake Center
10:56PM 41.1008 -111.1231 72° East 277 319 17,500 480 Climbing Salt Lake Center
10:57PM 41.1247 -111.0250 72° East 279 321 18,000 360 Climbing Salt Lake Center
10:58PM 41.1528 -110.9100 72° East 286 329 18,300 360 Climbing Salt Lake Center
10:59PM 41.1772 -110.8131 71° East 289 333 18,800 60 Climbing Salt Lake Center
11:00PM 41.2050 -110.6992 72° East 291 335 18,500 -480 Descending Salt Lake Center
11:01PM 41.2319 -110.5917 72° East 313 360 17,900 -360 Descending Salt Lake Center
11:02PM 41.2572 -110.4864 72° East 314 361 17,800 -480 Descending Salt Lake Center
11:03PM 41.2883 -110.3628 71° East 316 364 17,000 -780 Descending Salt Lake Center
11:04PM 41.3131 -110.2572 73° East 314 361 16,300 -780 Descending Salt Lake Center
11:05PM 41.3428 -110.1344 72° East 312 359 15,500 -840 Descending Salt Lake Center
11:06PM 41.3692 -110.0292 71° East 314 361 14,700 -660 Descending Salt Lake Center
11:07PM 41.3944 -109.9236 72° East 313 360 14,200 -600 Descending Salt Lake Center
11:08PM 41.4228 -109.8039 72° East 304 350 13,600 -660 Descending Salt Lake Center
11:09PM 41.4472 -109.7003 72° East 306 352 12,900 -720 Descending Salt Lake Center
11:10PM 41.4714 -109.5958 73° East 308 354 12,200 -720 Descending Salt Lake Center